Time,TemperatureF,DewpointF,PressureIn,WindDirection,WindDirectionDegrees,WindSpeedMPH,WindSpeedGustMPH,Humidity,HourlyPrecipIn,Conditions,Clouds,dailyrainin,SolarRadiationWatts/m^2,SoftwareType,DateUTC
2013-08-27 00:23:00,76.0,67.0,-100.00,South,180,9.0,12.0,75,0.00,,,0.00,0.000000,,2013-08-27 05:23:00,
2013-08-27 00:34:00,76.0,67.0,-100.00,South,180,9.0,12.0,75,0.00,,,0.00,0.000000,,2013-08-27 05:34:00,
2013-08-27 00:43:00,76.0,67.0,-100.00,South,180,9.0,12.0,75,0.00,,,0.00,0.000000,,2013-08-27 05:43:00,
2013-08-27 00:52:00,76.0,67.0,-100.00,South,180,9.0,12.0,75,0.00,,,0.00,0.000000,,2013-08-27 05:52:00,
2013-08-27 01:22:00,76.0,66.0,-100.00,South,185,9.0,13.0,72,0.00,,,0.00,0.000000,,2013-08-27 06:22:00,
2013-08-27 01:32:00,76.0,66.0,-100.00,South,185,9.0,13.0,72,0.00,,,0.00,0.000000,,2013-08-27 06:32:00,
2013-08-27 01:42:00,76.0,66.0,-100.00,South,185,9.0,13.0,72,0.00,,,0.00,0.000000,,2013-08-27 06:42:00,
2013-08-27 01:52:00,76.0,66.0,-100.00,South,185,9.0,13.0,72,0.00,,,0.00,0.000000,,2013-08-27 06:52:00,
2013-08-27 02:21:00,74.0,66.0,-100.00,South,186,9.0,12.0,76,0.00,,,0.00,0.000000,,2013-08-27 07:21:00,
2013-08-27 02:32:00,74.0,66.0,-100.00,South,186,9.0,12.0,76,0.00,,,0.00,0.000000,,2013-08-27 07:32:00,
2013-08-27 02:42:00,74.0,66.0,-100.00,South,186,9.0,12.0,76,0.00,,,0.00,0.000000,,2013-08-27 07:42:00,
2013-08-27 02:52:00,74.0,66.0,-100.00,South,186,9.0,12.0,76,0.00,,,0.00,0.000000,,2013-08-27 07:52:00,
2013-08-27 03:22:00,72.0,65.0,-100.00,South,186,9.0,12.0,80,0.00,,,0.00,0.000000,,2013-08-27 08:22:00,
2013-08-27 03:33:00,72.0,65.0,-100.00,South,186,9.0,12.0,80,0.00,,,0.00,0.000000,,2013-08-27 08:33:00,
2013-08-27 03:42:00,72.0,65.0,-100.00,South,186,9.0,12.0,80,0.00,,,0.00,0.000000,,2013-08-27 08:42:00,
2013-08-27 03:52:00,72.0,65.0,-100.00,South,186,9.0,12.0,80,0.00,,,0.00,0.000000,,2013-08-27 08:52:00,
2013-08-27 04:21:00,72.0,67.0,-100.00,South,185,9.0,12.0,83,0.00,,,0.00,0.000000,,2013-08-27 09:21:00,
2013-08-27 04:35:00,72.0,67.0,-100.00,South,185,9.0,12.0,83,0.00,,,0.00,0.000000,,2013-08-27 09:35:00,
2013-08-27 04:43:00,72.0,67.0,-100.00,South,185,9.0,12.0,83,0.00,,,0.00,0.000000,,2013-08-27 09:43:00,
2013-08-27 04:54:00,72.0,67.0,-100.00,South,185,9.0,12.0,83,0.00,,,0.00,0.000000,,2013-08-27 09:54:00,
2013-08-27 05:25:00,71.0,65.0,-100.00,South,189,9.0,13.0,82,0.00,,,0.00,0.000000,,2013-08-27 10:25:00,
2013-08-27 05:33:00,71.0,65.0,-100.00,South,189,9.0,13.0,82,0.00,,,0.00,0.000000,,2013-08-27 10:33:00,
2013-08-27 05:43:00,71.0,65.0,-100.00,South,189,9.0,13.0,82,0.00,,,0.00,0.000000,,2013-08-27 10:43:00,
2013-08-27 05:53:00,71.0,65.0,-100.00,South,189,9.0,13.0,82,0.00,,,0.00,0.000000,,2013-08-27 10:53:00,
2013-08-27 06:22:00,70.0,66.0,-100.00,South,188,8.0,12.0,86,0.00,,,0.00,0.000000,,2013-08-27 11:22:00,
2013-08-27 06:33:00,70.0,66.0,-100.00,South,188,8.0,12.0,86,0.00,,,0.00,0.000000,,2013-08-27 11:33:00,
2013-08-27 06:42:00,70.0,66.0,-100.00,South,188,8.0,12.0,86,0.00,,,0.00,0.000000,,2013-08-27 11:42:00,
2013-08-27 06:52:00,70.0,66.0,-100.00,South,188,8.0,12.0,86,0.00,,,0.00,0.000000,,2013-08-27 11:52:00,
2013-08-27 07:21:00,68.0,65.0,-100.00,South,187,7.0,10.0,90,0.00,,,0.00,0.000000,,2013-08-27 12:21:00,
2013-08-27 07:32:00,68.0,65.0,-100.00,South,187,7.0,10.0,90,0.00,,,0.00,0.000000,,2013-08-27 12:32:00,
2013-08-27 07:42:00,68.0,65.0,-100.00,South,187,7.0,10.0,90,0.00,,,0.00,0.000000,,2013-08-27 12:42:00,
2013-08-27 07:52:00,68.0,65.0,-100.00,South,187,7.0,10.0,90,0.00,,,0.00,0.000000,,2013-08-27 12:52:00,
2013-08-27 08:22:00,71.0,68.0,-100.00,SSW,193,7.0,10.0,89,0.00,,,0.00,0.000000,,2013-08-27 13:22:00,
2013-08-27 08:32:00,71.0,68.0,-100.00,SSW,193,7.0,10.0,89,0.00,,,0.00,0.000000,,2013-08-27 13:32:00,
2013-08-27 08:42:00,71.0,68.0,-100.00,SSW,193,7.0,10.0,89,0.00,,,0.00,0.000000,,2013-08-27 13:42:00,
2013-08-27 08:52:00,71.0,68.0,-100.00,SSW,193,7.0,10.0,89,0.00,,,0.00,0.000000,,2013-08-27 13:52:00,
2013-08-27 09:22:00,76.0,68.0,-100.00,SSW,198,11.0,15.0,76,0.00,,,0.00,0.000000,,2013-08-27 14:22:00,
2013-08-27 09:32:00,76.0,68.0,-100.00,SSW,198,11.0,15.0,76,0.00,,,0.00,0.000000,,2013-08-27 14:32:00,
2013-08-27 09:42:00,76.0,68.0,-100.00,SSW,198,11.0,15.0,76,0.00,,,0.00,0.000000,,2013-08-27 14:42:00,
2013-08-27 09:53:00,76.0,68.0,-100.00,SSW,198,11.0,15.0,76,0.00,,,0.00,0.000000,,2013-08-27 14:53:00,
2013-08-27 09:56:00,80.0,67.0,-100.00,SSW,205,14.0,20.0,65,0.00,,,0.00,0.000000,,2013-08-27 14:56:00,
2013-08-27 10:22:00,80.0,67.0,-100.00,SSW,205,14.0,20.0,65,0.00,,,0.00,0.000000,,2013-08-27 15:22:00,
2013-08-27 10:35:00,80.0,67.0,-100.00,SSW,205,14.0,20.0,65,0.00,,,0.00,0.000000,,2013-08-27 15:35:00,
2013-08-27 10:45:00,80.0,67.0,-100.00,SSW,205,14.0,20.0,65,0.00,,,0.00,0.000000,,2013-08-27 15:45:00,
2013-08-27 11:28:00,83.0,67.0,-100.00,SW,214,13.0,19.0,58,0.00,,,0.00,0.000000,,2013-08-27 16:28:00,
2013-08-27 11:35:00,83.0,67.0,-100.00,SW,214,13.0,19.0,58,0.00,,,0.00,0.000000,,2013-08-27 16:35:00,
2013-08-27 11:46:00,83.0,67.0,-100.00,SW,214,13.0,19.0,58,0.00,,,0.00,0.000000,,2013-08-27 16:46:00,
2013-08-27 11:55:00,83.0,67.0,-100.00,SW,214,13.0,19.0,58,0.00,,,0.00,0.000000,,2013-08-27 16:55:00,
2013-08-27 12:23:00,87.0,68.0,-100.00,SSW,206,11.0,19.0,54,0.00,,,0.00,0.000000,,2013-08-27 17:23:00,
2013-08-27 12:35:00,87.0,68.0,-100.00,SSW,206,11.0,19.0,54,0.00,,,0.00,0.000000,,2013-08-27 17:35:00,
2013-08-27 12:43:00,87.0,68.0,-100.00,SSW,206,11.0,19.0,54,0.00,,,0.00,0.000000,,2013-08-27 17:43:00,
2013-08-27 12:52:00,87.0,68.0,-100.00,SSW,206,11.0,19.0,54,0.00,,,0.00,0.000000,,2013-08-27 17:52:00,
2013-08-27 13:42:00,89.0,68.0,-100.00,South,183,11.0,18.0,51,0.00,,,0.00,0.000000,,2013-08-27 18:42:00,
2013-08-27 13:52:00,89.0,68.0,-100.00,South,183,11.0,18.0,51,0.00,,,0.00,0.000000,,2013-08-27 18:52:00,
2013-08-27 14:22:00,91.0,69.0,-100.00,South,174,12.0,16.0,48,0.00,,,0.00,0.000000,,2013-08-27 19:22:00,
2013-08-27 14:32:00,91.0,69.0,-100.00,South,174,12.0,16.0,48,0.00,,,0.00,0.000000,,2013-08-27 19:32:00,
2013-08-27 14:42:00,91.0,69.0,-100.00,South,174,12.0,16.0,48,0.00,,,0.00,0.000000,,2013-08-27 19:42:00,
2013-08-27 14:52:00,91.0,69.0,-100.00,South,174,12.0,16.0,48,0.00,,,0.00,0.000000,,2013-08-27 19:52:00,